Decoded Metar for CWSA (SABLE ISLAND in NS, CANADA) (IATA:WSA) | Meteo·Mobile Aviation Weather
aviador You're here:

CWSA Decoded Metar

SABLE ISLAND in NS, CANADA
Report Time2019-10-21 06:00:00
UTC Time2019-10-21 07:10:11
Flight Rules Old
Wind330° at 06 kt
Visibility9999 m
Phenomena:N/A
Clouds:Broken 240 Hf
Expected CloudBase > 2,000 ft AGL from Temp-Dew spread
Ceiling24,000 ft
Temp10°C (ISA -5)
Dew Point05°C (71% RH)
AAT6.7°C
QNH1020 hPa
Density Alt-699 ft
Elevation13 ft
Report Wrong Elevation
Raw Report
CWSA 210600Z AUTO 33006KT 9SM BKN240 10/05 A3011 RMK SLP197=

Extra information for CWSA:More info

Metar Taf Metar & Taf Last 4 Metars F.Rules Stats Wind Profile Meteogram Temp Stats Airport Information Weather charts Add Link Nearby VenuesMetar ALERT Operation Metar Decoded Social comments